Bookmark and Share
Track history (hours):
 

Bitflower

Last reported at 2014-Apr-23 12:33 UTC. Time now 2014-Apr-23 12:43 UTC.
Position N 53°55' E 009°11'.

Length 116 m; draft 4.8 m.

Type: Ship. MMSI: 266009000.

NotesDate/timePositionNaut miles runAvg speedWind from/ knotsBaromVisibWave heightAir tempDewpointWater temp
2014-Apr-23 12:33N 53°55' E 009°11'8 7.8
2014-Apr-23 11:33N 54°01' E 009°18'8 7.6
2014-Apr-23 10:34N 54°09' E 009°21'3 2.6
2014-Apr-23 09:33N 54°10' E 009°25'8 7.9
2014-Apr-23 08:33N 54°14' E 009°36'42 5.2
2014-Apr-23 00:30N 54°51' E 010°12'1212.1
2014-Apr-22 23:33N 55°01' E 010°02'52 1.5
2014-Apr-21 12:33N 54°12' E 009°33'8 8.0
2014-Apr-21 11:32N 54°09' E 009°21'7 7.3
2014-Apr-21 10:33N 54°02' E 009°18'8 7.7
2014-Apr-21 09:31N 53°55' E 009°11'0 0.0
2014-Apr-21 08:31N 53°55' E 009°11'0 0.0
2014-Apr-21 07:28N 53°55' E 009°11'0 0.0
2014-Apr-21 06:31N 53°55' E 009°11'0 0.0
2014-Apr-21 05:28N 53°55' E 009°11'0 0.0
2014-Apr-21 04:28N 53°55' E 009°11'0 0.0
2014-Apr-21 03:29N 53°55' E 009°11'0 0.0
2014-Apr-21 02:31N 53°55' E 009°11'0 0.0
2014-Apr-21 01:28N 53°55' E 009°11'0 0.0
2014-Apr-21 00:31N 53°55' E 009°11'0 0.0
2014-Apr-20 23:31N 53°55' E 009°11'0 0.0
2014-Apr-20 22:31N 53°55' E 009°11'0 0.0
2014-Apr-20 21:31N 53°55' E 009°11'0 0.0
2014-Apr-20 20:31N 53°55' E 009°11'0 0.0
2014-Apr-20 19:31N 53°55' E 009°11'0 0.0
2014-Apr-20 18:31N 53°55' E 009°11'0 0.0
2014-Apr-20 17:31N 53°55' E 009°11'0 0.0
2014-Apr-20 16:31N 53°55' E 009°11'0 0.0
2014-Apr-20 15:31N 53°55' E 009°11'0 0.0
2014-Apr-20 14:31N 53°55' E 009°11'0 0.0
2014-Apr-20 13:31N 53°55' E 009°11'0 0.0
2014-Apr-20 12:31N 53°55' E 009°11'0 0.0
2014-Apr-20 11:31N 53°55' E 009°11'0 0.0
2014-Apr-20 10:31N 53°55' E 009°11'0 0.0
2014-Apr-20 09:31N 53°55' E 009°11'0 0.0
2014-Apr-20 08:31N 53°55' E 009°11'0 0.0
2014-Apr-20 07:33N 53°55' E 009°11'0 0.0
2014-Apr-20 06:33N 53°55' E 009°11'0 0.0
2014-Apr-20 05:34N 53°55' E 009°11'0 0.0
2014-Apr-20 04:33N 53°55' E 009°11'2 1.9
2014-Apr-20 03:33N 53°53' E 009°09'1 0.8
2014-Apr-20 02:31N 53°53' E 009°08'0 0.0
2014-Apr-20 01:31N 53°53' E 009°08'0 0.0
2014-Apr-20 00:32N 53°53' E 009°08'6 6.1
2014-Apr-19 23:33N 53°51' E 008°59'1111.3
2014-Apr-19 22:33N 53°55' E 008°41'1312.8
2014-Apr-19 21:33N 53°59' E 008°20'1312.7
2014-Apr-19 20:33N 54°01' E 007°59'1312.5
2014-Apr-19 19:33N 54°07' E 007°40'1312.8
2014-Apr-19 18:33N 54°19' E 007°33'1212.4
2014-Apr-19 17:33N 54°31' E 007°26'1212.0
2014-Apr-19 16:33N 54°42' E 007°18'1212.0
2014-Apr-19 15:34N 54°53' E 007°11'1211.7
2014-Apr-19 14:33N 55°04' E 007°03'1211.7
2014-Apr-19 13:33N 55°15' E 007°03'1212.4
2014-Apr-19 12:33N 55°27' E 007°08'1514.6
2014-Apr-19 11:33N 55°41' E 007°15'5413.2
2014-Apr-19 07:27N 56°33' E 007°42'11611.8
2014-Apr-18 21:33N 57°49' E 010°26'1211.8
2014-Apr-18 20:34N 57°48' E 010°48'1413.6
2014-Apr-18 19:34N 57°43' E 011°11'1211.7
2014-Apr-18 18:33N 57°38' E 011°31'1010.1
2014-Apr-18 17:33N 57°41' E 011°49'5 4.4
2014-Apr-18 16:32N 57°43' E 011°57'  

Dump ship's entire track history

sailing weather and tide predictions

Bitflower — SBJE — position and weather